Amistad, New Mexico
Current Conditions -  °F | °C
As of 7:53 PM on Sunday 21 Dec 2014 (Local Time) from KDHT Reporting Station
Clear Clear  
Wind Chill:   Ceiling: Unl
Heat Index:   Visibility: 10mi
Dew Point: -3°   Wind: 6mph
Humidity: 55%   Direction: 260°W
Pressure: 29.6"   Gusts: NA
Location:  35.92°N, 103.16°W
Report Text: KDHT 220253Z AUTO 26005KT 10SM CLR 05/M03 A2960 RMK AO2 SLP021 T00501033 51002
Loading
Personal Weather Stations






























Interactive Weather Map New forecast layout! Learn more

10-Day Weather Forecast

Advertisements
Track Severe Weather on mobile